createdAt,value
2017-10-28T00:00:19.104Z,10.10
2017-10-28T00:02:46.575Z,10.10
2017-10-28T00:05:14.018Z,10.10
2017-10-28T00:07:41.455Z,10.10
2017-10-28T00:10:08.913Z,10.10
2017-10-28T00:12:36.347Z,10.10
2017-10-28T00:15:04.560Z,10.10
2017-10-28T00:17:32.014Z,10.10
2017-10-28T00:19:59.483Z,10.20
2017-10-28T00:22:26.931Z,10.10
2017-10-28T00:24:54.386Z,10.10
2017-10-28T00:27:21.842Z,10.10
2017-10-28T00:29:49.301Z,10.20
2017-10-28T00:32:22.407Z,10.20
2017-10-28T00:34:55.670Z,10.20
2017-10-28T00:37:23.123Z,10.20
2017-10-28T00:39:50.580Z,10.20
2017-10-28T00:42:18.017Z,10.20
2017-10-28T00:44:45.439Z,10.10
2017-10-28T00:47:12.980Z,10.10
2017-10-28T00:49:40.410Z,10.10
2017-10-28T00:52:07.894Z,10.10
2017-10-28T00:54:35.434Z,10.20
2017-10-28T00:57:03.000Z,10.20
2017-10-28T00:59:30.444Z,10.10
2017-10-28T01:01:57.878Z,10.10
2017-10-28T01:04:25.371Z,10.10
2017-10-28T01:06:52.829Z,10.10
2017-10-28T01:09:20.667Z,10.10
2017-10-28T01:11:48.146Z,10.10
2017-10-28T01:14:15.613Z,10.10
2017-10-28T01:16:43.059Z,10.10
2017-10-28T01:19:10.516Z,10.10
2017-10-28T01:21:37.973Z,10.10
2017-10-28T01:24:05.418Z,10.10
2017-10-28T01:26:32.867Z,10.10
2017-10-28T01:29:00.298Z,10.10
2017-10-28T01:31:27.807Z,10.10
2017-10-28T01:33:55.306Z,10.10
2017-10-28T01:36:22.758Z,10.10
2017-10-28T01:38:50.208Z,10.00
2017-10-28T01:41:17.648Z,10.00
2017-10-28T01:43:45.297Z,10.00
2017-10-28T01:46:12.967Z,9.90
2017-10-28T01:48:40.417Z,9.90
2017-10-28T01:51:07.915Z,9.90
2017-10-28T01:53:35.383Z,10.00
2017-10-28T01:56:02.827Z,10.00
2017-10-28T01:58:30.559Z,10.00
2017-10-28T02:00:58.015Z,10.00
2017-10-28T02:03:26.263Z,10.00
2017-10-28T02:05:53.699Z,9.90
2017-10-28T02:08:21.181Z,10.00
2017-10-28T02:10:48.647Z,10.00
2017-10-28T02:13:16.079Z,10.00
2017-10-28T02:15:43.535Z,10.00
2017-10-28T02:18:10.972Z,10.00
2017-10-28T02:20:38.471Z,10.10
2017-10-28T02:23:05.893Z,10.10
2017-10-28T02:25:33.355Z,10.10
2017-10-28T02:28:00.779Z,10.10
2017-10-28T02:30:28.276Z,10.10
2017-10-28T02:32:55.727Z,10.10
2017-10-28T02:35:23.191Z,10.10
2017-10-28T02:37:50.626Z,10.20
2017-10-28T02:40:18.072Z,10.20
2017-10-28T02:42:45.568Z,10.20
2017-10-28T02:45:13.047Z,10.20
2017-10-28T02:47:41.255Z,10.30
2017-10-28T02:50:08.756Z,10.20
2017-10-28T02:52:36.200Z,10.20
2017-10-28T02:55:03.644Z,10.30
2017-10-28T02:57:31.845Z,10.20
2017-10-28T02:59:59.324Z,10.20
2017-10-28T03:02:26.795Z,10.20
2017-10-28T03:04:54.231Z,10.20
2017-10-28T03:07:21.667Z,10.10
2017-10-28T03:09:49.119Z,10.10
2017-10-28T03:12:16.603Z,10.00
2017-10-28T03:14:44.056Z,10.00
2017-10-28T03:17:11.517Z,10.00
2017-10-28T03:19:38.947Z,10.00
2017-10-28T03:22:06.394Z,10.00
2017-10-28T03:24:33.888Z,10.00
2017-10-28T03:27:01.359Z,10.00
2017-10-28T03:29:28.802Z,10.10
2017-10-28T03:31:56.236Z,10.10
2017-10-28T03:34:23.683Z,10.10
2017-10-28T03:36:51.114Z,10.10
2017-10-28T03:39:19.363Z,10.20
2017-10-28T03:41:46.798Z,10.10
2017-10-28T03:44:14.243Z,10.20
2017-10-28T03:46:41.711Z,10.20
2017-10-28T03:49:09.174Z,10.20
2017-10-28T03:51:36.614Z,10.20
2017-10-28T03:54:04.082Z,10.20
2017-10-28T03:56:31.531Z,10.20
2017-10-28T03:58:58.971Z,10.20
2017-10-28T04:01:26.456Z,10.20
2017-10-28T04:03:53.919Z,10.20
2017-10-28T04:06:21.356Z,10.20
2017-10-28T04:08:48.827Z,10.20
2017-10-28T04:11:16.271Z,10.30
2017-10-28T04:13:43.744Z,10.20
2017-10-28T04:16:11.199Z,10.20
2017-10-28T04:18:38.626Z,10.20
2017-10-28T04:21:06.098Z,10.20
2017-10-28T04:23:33.554Z,10.20
2017-10-28T04:26:00.988Z,10.20
2017-10-28T04:28:28.547Z,10.20
2017-10-28T04:30:56.039Z,10.30
2017-10-28T04:33:23.464Z,10.20
2017-10-28T04:35:50.919Z,10.20
2017-10-28T04:38:18.494Z,10.20
2017-10-28T04:40:46.054Z,10.20
2017-10-28T04:43:13.506Z,10.20
2017-10-28T04:45:40.987Z,10.10
2017-10-28T04:48:08.427Z,10.10
2017-10-28T04:50:35.888Z,10.20
2017-10-28T04:53:03.344Z,10.20
2017-10-28T04:55:30.800Z,10.20
2017-10-28T04:57:58.255Z,10.20
2017-10-28T05:00:25.717Z,10.20
2017-10-28T05:02:53.171Z,10.20
2017-10-28T05:05:20.610Z,10.20
2017-10-28T05:07:48.086Z,10.20
2017-10-28T05:10:15.536Z,10.20
2017-10-28T05:12:42.983Z,10.10
2017-10-28T05:15:10.446Z,10.10
2017-10-28T05:17:37.908Z,10.10
2017-10-28T05:20:05.363Z,10.20
2017-10-28T05:22:32.935Z,10.10
2017-10-28T05:25:00.380Z,10.20
2017-10-28T05:27:27.839Z,10.20
2017-10-28T05:29:55.300Z,10.10
2017-10-28T05:32:22.855Z,10.10
2017-10-28T05:34:50.383Z,10.10
2017-10-28T05:37:17.875Z,10.20
2017-10-28T05:39:46.080Z,10.20
2017-10-28T05:42:13.508Z,10.20
2017-10-28T05:44:40.965Z,10.20
2017-10-28T05:47:08.399Z,10.20
2017-10-28T05:49:35.842Z,10.20
2017-10-28T05:52:03.268Z,10.20
2017-10-28T05:54:31.523Z,10.20
2017-10-28T05:56:59.063Z,10.20
2017-10-28T05:59:26.624Z,10.20
2017-10-28T06:01:54.085Z,10.20
2017-10-28T06:04:21.531Z,10.20
2017-10-28T06:06:48.965Z,10.10
2017-10-28T06:09:16.454Z,10.10
2017-10-28T06:11:43.887Z,10.10
2017-10-28T06:14:11.444Z,10.10
2017-10-28T06:16:38.991Z,10.10
2017-10-28T06:19:06.490Z,10.10
2017-10-28T06:21:34.019Z,10.10
2017-10-28T06:24:01.459Z,10.10
2017-10-28T06:26:28.911Z,10.10
2017-10-28T06:28:56.339Z,10.20
2017-10-28T06:31:24.565Z,10.20
2017-10-28T06:33:52.002Z,10.20
2017-10-28T06:36:19.466Z,10.20
2017-10-28T06:38:47.010Z,10.30
2017-10-28T06:41:14.446Z,10.20
2017-10-28T06:43:41.884Z,10.20
2017-10-28T06:46:10.092Z,10.30
2017-10-28T06:48:37.586Z,10.20
2017-10-28T06:51:05.027Z,10.30
2017-10-28T06:53:32.459Z,10.30
2017-10-28T06:56:00.024Z,10.30
2017-10-28T06:58:27.448Z,10.30
2017-10-28T07:00:55.644Z,10.30
2017-10-28T07:03:23.139Z,10.20
2017-10-28T07:05:50.556Z,10.30
2017-10-28T07:08:17.995Z,10.30
2017-10-28T07:10:45.422Z,10.40
2017-10-28T07:13:12.864Z,10.40
2017-10-28T07:15:40.294Z,10.40
2017-10-28T07:18:07.767Z,10.40
2017-10-28T07:20:35.199Z,10.40
2017-10-28T07:23:02.759Z,10.40
2017-10-28T07:25:30.186Z,10.40
2017-10-28T07:27:58.395Z,10.50
2017-10-28T07:30:25.842Z,10.40
2017-10-28T07:32:53.415Z,10.50
2017-10-28T07:35:20.855Z,10.50
2017-10-28T07:37:48.427Z,10.50
2017-10-28T07:40:15.970Z,10.50
2017-10-28T07:42:43.402Z,10.50
2017-10-28T07:45:10.850Z,10.60
2017-10-28T07:47:39.075Z,10.60
2017-10-28T07:50:06.515Z,10.60
2017-10-28T07:52:33.985Z,10.60
2017-10-28T07:55:01.431Z,10.70
2017-10-28T07:57:28.863Z,10.70
2017-10-28T07:59:56.344Z,10.70
2017-10-28T08:02:23.812Z,10.80
2017-10-28T08:04:51.247Z,10.80
2017-10-28T08:07:18.735Z,10.80
2017-10-28T08:09:46.183Z,10.90
2017-10-28T08:12:13.641Z,10.90
2017-10-28T08:14:41.091Z,11.00
2017-10-28T08:17:08.632Z,11.00
2017-10-28T08:19:36.118Z,11.00
2017-10-28T08:22:03.784Z,10.90
2017-10-28T08:24:31.309Z,10.90
2017-10-28T08:26:58.900Z,10.90
2017-10-28T08:29:26.335Z,11.00
2017-10-28T08:31:53.809Z,11.00
2017-10-28T08:34:21.253Z,10.90
2017-10-28T08:36:48.702Z,11.00
2017-10-28T08:39:16.147Z,11.00
2017-10-28T08:41:43.623Z,11.10
2017-10-28T08:44:11.064Z,11.10
2017-10-28T08:46:38.540Z,11.10
2017-10-28T08:49:05.976Z,11.10
2017-10-28T08:51:33.414Z,11.20
2017-10-28T08:54:00.924Z,11.20
2017-10-28T08:56:28.445Z,11.30
2017-10-28T08:58:55.935Z,11.30
2017-10-28T09:01:23.384Z,11.20
2017-10-28T09:03:50.830Z,11.30
2017-10-28T09:06:18.280Z,11.30
2017-10-28T09:08:45.742Z,11.40
2017-10-28T09:11:13.190Z,11.40
2017-10-28T09:13:40.632Z,11.40
2017-10-28T09:16:08.063Z,11.40
2017-10-28T09:18:36.288Z,11.50
2017-10-28T09:21:03.746Z,11.50
2017-10-28T09:23:31.199Z,11.50
2017-10-28T09:25:58.632Z,11.50
2017-10-28T09:28:27.615Z,11.50
2017-10-28T09:30:55.108Z,11.50
2017-10-28T09:33:22.535Z,11.60
2017-10-28T09:35:50.028Z,11.60
2017-10-28T09:38:17.486Z,11.70
2017-10-28T09:40:44.919Z,11.70
2017-10-28T09:43:12.348Z,11.70
2017-10-28T09:45:39.806Z,11.70
2017-10-28T09:48:07.266Z,11.70
2017-10-28T09:50:34.708Z,11.60
2017-10-28T09:53:02.908Z,11.60
2017-10-28T09:55:30.358Z,11.50
2017-10-28T09:57:57.812Z,11.60
2017-10-28T10:02:27.351Z,11.60
2017-10-28T10:04:54.807Z,11.60
2017-10-28T10:07:22.238Z,11.60
2017-10-28T10:09:49.735Z,11.70
2017-10-28T10:12:17.175Z,11.80
2017-10-28T10:14:44.618Z,11.80
2017-10-28T10:17:12.060Z,11.80
2017-10-28T10:19:39.563Z,11.70
2017-10-28T10:22:07.011Z,11.70
2017-10-28T10:24:34.449Z,11.70
2017-10-28T10:27:01.906Z,11.80
2017-10-28T10:29:29.390Z,11.80
2017-10-28T10:31:56.823Z,11.80
2017-10-28T10:34:24.296Z,11.80
2017-10-28T10:36:51.739Z,11.80
2017-10-28T10:39:19.198Z,11.80
2017-10-28T10:41:46.636Z,11.80
2017-10-28T10:44:14.115Z,11.80
2017-10-28T10:46:41.704Z,11.80
2017-10-28T10:49:09.127Z,11.80
2017-10-28T10:51:36.575Z,11.80
2017-10-28T10:54:04.046Z,11.80
2017-10-28T10:56:31.503Z,11.80
2017-10-28T10:58:58.948Z,11.80
2017-10-28T11:01:26.431Z,11.80
2017-10-28T11:03:53.955Z,11.90
2017-10-28T11:06:21.437Z,12.00
2017-10-28T11:08:48.882Z,12.00
2017-10-28T11:11:16.340Z,12.10
2017-10-28T11:13:43.889Z,12.10
2017-10-28T11:16:11.449Z,12.10
2017-10-28T11:18:38.892Z,12.10
2017-10-28T11:21:08.862Z,12.10
2017-10-28T11:23:36.299Z,12.10
2017-10-28T11:26:03.737Z,12.20
2017-10-28T11:28:31.242Z,12.20
2017-10-28T11:30:59.472Z,12.10
2017-10-28T11:33:26.928Z,12.00
2017-10-28T11:35:54.387Z,11.90
2017-10-28T11:38:21.844Z,11.90
2017-10-28T11:40:49.291Z,11.90
2017-10-28T11:43:16.762Z,11.90
2017-10-28T11:45:44.343Z,12.00
2017-10-28T11:48:11.779Z,12.00
2017-10-28T11:50:39.215Z,12.00
2017-10-28T11:53:06.657Z,12.10
2017-10-28T11:55:34.131Z,12.20
2017-10-28T11:58:01.573Z,12.20
2017-10-28T12:00:28.998Z,12.30
2017-10-28T12:02:57.240Z,12.40
2017-10-28T12:05:24.684Z,12.40
2017-10-28T12:07:52.127Z,12.40
2017-10-28T12:10:19.579Z,12.40
2017-10-28T12:12:47.056Z,12.30
2017-10-28T12:15:14.609Z,12.20
2017-10-28T12:17:42.063Z,12.20
2017-10-28T12:20:09.508Z,12.20
2017-10-28T12:22:36.987Z,12.20
2017-10-28T12:25:04.507Z,12.10
2017-10-28T12:27:31.996Z,12.20
2017-10-28T12:29:59.494Z,12.20
2017-10-28T12:32:27.009Z,12.20
2017-10-28T12:34:54.503Z,12.20
2017-10-28T12:37:22.698Z,12.20
2017-10-28T12:39:50.169Z,12.20
2017-10-28T12:42:17.604Z,12.20
2017-10-28T12:44:45.115Z,12.20
2017-10-28T12:47:12.665Z,12.20
2017-10-28T12:49:40.122Z,12.30
2017-10-28T12:52:07.575Z,12.30
2017-10-28T12:54:35.026Z,12.40
2017-10-28T12:57:02.585Z,12.40
2017-10-28T12:59:30.025Z,12.50
2017-10-28T13:01:57.466Z,12.50
2017-10-28T13:04:24.908Z,12.60
2017-10-28T13:06:53.120Z,12.50
2017-10-28T13:09:20.646Z,12.50
2017-10-28T13:11:48.149Z,12.50
2017-10-28T13:14:15.607Z,12.50
2017-10-28T13:16:43.051Z,12.50
2017-10-28T13:19:10.492Z,12.50
2017-10-28T13:21:37.972Z,12.60
2017-10-28T13:24:05.429Z,12.60
2017-10-28T13:26:32.855Z,12.60
2017-10-28T13:29:00.286Z,12.70
2017-10-28T13:31:28.490Z,12.70
2017-10-28T13:33:55.977Z,12.60
2017-10-28T13:36:23.420Z,12.70
2017-10-28T13:38:50.887Z,12.60
2017-10-28T13:41:18.348Z,12.60
2017-10-28T13:43:45.808Z,12.60
2017-10-28T13:46:13.236Z,12.50
2017-10-28T13:48:40.805Z,12.50
2017-10-28T13:51:08.259Z,12.40
2017-10-28T13:53:35.734Z,12.40
2017-10-28T13:56:03.215Z,12.30
2017-10-28T13:58:30.715Z,12.20
2017-10-28T14:00:58.214Z,12.20
2017-10-28T14:03:26.512Z,12.20
2017-10-28T14:05:53.985Z,12.10
2017-10-28T14:08:21.429Z,12.20
2017-10-28T14:10:49.661Z,12.20
2017-10-28T14:13:17.227Z,12.20
2017-10-28T14:15:44.672Z,12.20
2017-10-28T14:18:12.128Z,12.30
2017-10-28T14:20:39.585Z,12.30
2017-10-28T14:23:07.013Z,12.30
2017-10-28T14:25:34.605Z,12.30
2017-10-28T14:28:02.059Z,12.30
2017-10-28T14:30:29.515Z,12.30
2017-10-28T14:32:56.971Z,12.30
2017-10-28T14:35:24.423Z,12.30
2017-10-28T14:37:51.903Z,12.30
2017-10-28T14:40:19.360Z,12.10
2017-10-28T14:42:46.820Z,12.10
2017-10-28T14:45:14.459Z,12.00
2017-10-28T14:47:41.996Z,12.00
2017-10-28T14:50:09.434Z,11.90
2017-10-28T14:52:36.866Z,11.80
2017-10-28T14:55:05.121Z,11.70
2017-10-28T14:57:32.685Z,11.70
2017-10-28T15:00:00.959Z,11.50
2017-10-28T15:02:28.498Z,11.50
2017-10-28T15:04:55.955Z,11.50
2017-10-28T15:07:23.383Z,11.40
2017-10-28T15:09:50.823Z,11.40
2017-10-28T15:12:18.263Z,11.30
2017-10-28T15:14:45.776Z,11.20
2017-10-28T15:17:13.231Z,11.20
2017-10-28T15:19:40.675Z,11.20
2017-10-28T15:22:08.138Z,11.20
2017-10-28T15:24:35.559Z,11.20
2017-10-28T15:27:03.043Z,11.20
2017-10-28T15:29:30.603Z,11.20
2017-10-28T15:31:58.059Z,11.10
2017-10-28T15:34:25.490Z,11.20
2017-10-28T15:36:52.935Z,11.20
2017-10-28T15:39:20.374Z,11.10
2017-10-28T15:41:48.583Z,11.20
2017-10-28T15:44:16.059Z,11.20
2017-10-28T15:46:43.519Z,11.20
2017-10-28T15:49:10.951Z,11.30
2017-10-28T15:51:38.391Z,11.30
2017-10-28T15:54:05.889Z,11.30
2017-10-28T15:56:33.344Z,11.30
2017-10-28T15:59:00.895Z,11.40
2017-10-28T16:01:28.326Z,11.30
2017-10-28T16:03:55.792Z,11.30
2017-10-28T16:06:23.230Z,11.30
2017-10-28T16:08:50.848Z,11.40
2017-10-28T16:11:18.287Z,11.50
2017-10-28T16:13:45.736Z,11.50
2017-10-28T16:16:13.644Z,11.60
2017-10-28T16:18:41.263Z,11.60
2017-10-28T16:21:10.224Z,11.60
2017-10-28T16:23:37.665Z,11.70
2017-10-28T16:26:05.886Z,11.70
2017-10-28T16:28:33.319Z,11.70
2017-10-28T16:31:00.765Z,11.80
2017-10-28T16:33:28.224Z,11.80
2017-10-28T16:35:55.667Z,11.80
2017-10-28T16:38:23.858Z,11.80
2017-10-28T16:40:51.319Z,11.80
2017-10-28T16:43:18.796Z,11.70
2017-10-28T16:45:46.260Z,11.70
2017-10-28T16:48:14.366Z,11.50
2017-10-28T16:50:42.580Z,11.30
2017-10-28T16:53:10.055Z,11.20
2017-10-28T16:55:37.493Z,11.10
2017-10-28T16:58:04.928Z,11.00
2017-10-28T17:00:33.144Z,10.90
2017-10-28T17:03:00.591Z,10.90
2017-10-28T17:05:28.368Z,11.00
2017-10-28T17:07:55.922Z,10.90
2017-10-28T17:10:23.370Z,10.90
2017-10-28T17:12:50.829Z,11.00
2017-10-28T17:15:19.053Z,11.00
2017-10-28T17:17:47.301Z,11.00
2017-10-28T17:20:14.742Z,11.00
2017-10-28T17:22:42.195Z,11.10
2017-10-28T17:25:09.631Z,11.10
2017-10-28T17:27:37.106Z,11.20
2017-10-28T17:30:04.563Z,11.20
2017-10-28T17:32:32.146Z,11.20
2017-10-28T17:34:59.580Z,11.20
2017-10-28T17:37:27.038Z,11.20
2017-10-28T17:39:54.494Z,11.20
2017-10-28T17:42:21.916Z,11.20
2017-10-28T17:44:49.413Z,11.10
2017-10-28T17:47:16.946Z,11.10
2017-10-28T17:49:44.394Z,11.10
2017-10-28T17:52:11.857Z,11.10
2017-10-28T17:54:39.343Z,11.10
2017-10-28T17:57:06.807Z,11.10
2017-10-28T17:59:34.242Z,11.10
2017-10-28T18:02:01.679Z,11.10
2017-10-28T18:04:29.137Z,11.10
2017-10-28T18:06:56.586Z,11.10
2017-10-28T18:09:24.043Z,11.10
2017-10-28T18:11:51.546Z,11.10
2017-10-28T18:14:19.066Z,11.10
2017-10-28T18:16:46.567Z,11.10
2017-10-28T18:19:14.082Z,11.10
2017-10-28T18:21:41.688Z,11.10
2017-10-28T18:24:09.159Z,11.20
2017-10-28T18:26:37.391Z,11.20
2017-10-28T18:29:05.087Z,11.20
2017-10-28T18:31:32.519Z,11.20
2017-10-28T18:34:00.071Z,11.30
2017-10-28T18:36:27.519Z,11.30
2017-10-28T18:38:55.015Z,11.30
2017-10-28T18:41:23.223Z,11.30
2017-10-28T18:43:50.666Z,11.30
2017-10-28T18:46:18.160Z,11.30
2017-10-28T18:48:45.591Z,11.30
2017-10-28T18:51:13.183Z,11.30
2017-10-28T18:53:40.751Z,11.30
2017-10-28T18:56:08.320Z,11.30
2017-10-28T18:58:35.844Z,11.30
2017-10-28T19:01:03.313Z,11.30
2017-10-28T19:03:30.814Z,11.30
2017-10-28T19:05:58.252Z,11.30
2017-10-28T19:08:25.696Z,11.30
2017-10-28T19:10:53.151Z,11.30
2017-10-28T19:13:20.582Z,11.30
2017-10-28T19:15:48.015Z,11.40
2017-10-28T19:18:15.466Z,11.30
2017-10-28T19:20:42.960Z,11.30
2017-10-28T19:23:10.438Z,11.30
2017-10-28T19:25:37.999Z,11.30
2017-10-28T19:28:05.545Z,11.30
2017-10-28T19:30:33.107Z,11.40
2017-10-28T19:33:00.572Z,11.40
2017-10-28T19:35:28.039Z,11.50
2017-10-28T19:37:55.571Z,11.40
2017-10-28T19:40:23.039Z,11.50
2017-10-28T19:42:50.508Z,11.50
2017-10-28T19:45:18.069Z,11.60
2017-10-28T19:47:45.627Z,11.60
2017-10-28T19:50:13.855Z,11.70
2017-10-28T19:52:41.348Z,11.70
2017-10-28T19:55:08.821Z,11.70
2017-10-28T19:57:36.397Z,11.80
2017-10-28T20:00:03.883Z,11.90
2017-10-28T20:02:31.369Z,11.90
2017-10-28T20:04:58.829Z,11.90
2017-10-28T20:07:26.278Z,11.90
2017-10-28T20:09:53.742Z,11.90
2017-10-28T20:12:21.322Z,11.90
2017-10-28T20:14:48.874Z,11.90
2017-10-28T20:17:16.310Z,11.90
2017-10-28T20:19:43.772Z,11.90
2017-10-28T20:22:11.217Z,11.90
2017-10-28T20:24:38.670Z,12.00
2017-10-28T20:27:06.127Z,12.00
2017-10-28T20:29:33.547Z,12.00
2017-10-28T20:32:01.046Z,12.00
2017-10-28T20:34:28.502Z,12.10
2017-10-28T20:36:55.966Z,12.10
2017-10-28T20:39:23.422Z,12.20
2017-10-28T20:41:50.875Z,12.20
2017-10-28T20:44:18.329Z,12.30
2017-10-28T20:46:45.795Z,12.30
2017-10-28T20:49:13.251Z,12.40
2017-10-28T20:51:40.753Z,12.40
2017-10-28T20:54:08.212Z,12.40
2017-10-28T20:56:35.715Z,12.40
2017-10-28T20:59:03.156Z,12.40
2017-10-28T21:01:30.732Z,12.40
2017-10-28T21:03:58.188Z,12.40
2017-10-28T21:06:25.753Z,12.50
2017-10-28T21:08:53.310Z,12.60
2017-10-28T21:11:20.773Z,12.60
2017-10-28T21:13:48.185Z,12.70
2017-10-28T21:16:15.679Z,12.70
2017-10-28T21:18:43.137Z,12.80
2017-10-28T21:21:10.580Z,12.80
2017-10-28T21:23:38.034Z,12.80
2017-10-28T21:26:05.466Z,12.90
2017-10-28T21:28:32.915Z,12.90
2017-10-28T21:31:00.372Z,12.90
2017-10-28T21:33:27.838Z,12.90
2017-10-28T21:35:55.348Z,12.90
2017-10-28T21:38:22.791Z,13.00
2017-10-28T21:40:50.329Z,13.00
2017-10-28T21:43:17.783Z,13.00
2017-10-28T21:45:45.330Z,13.00
2017-10-28T21:48:12.804Z,13.00
2017-10-28T21:50:40.243Z,13.00
2017-10-28T21:53:07.696Z,13.00
2017-10-28T21:55:35.170Z,13.00
2017-10-28T21:58:02.604Z,13.10
2017-10-28T22:00:30.048Z,13.10
2017-10-28T22:02:57.511Z,13.20
2017-10-28T22:05:24.935Z,13.20
2017-10-28T22:07:53.163Z,13.20
2017-10-28T22:10:20.616Z,13.20
2017-10-28T22:12:48.056Z,13.20
2017-10-28T22:15:15.504Z,13.20
2017-10-28T22:17:43.191Z,13.10
2017-10-28T22:20:11.049Z,13.00
2017-10-28T22:22:38.495Z,13.00
2017-10-28T22:25:05.987Z,12.90
2017-10-28T22:27:33.433Z,13.00
2017-10-28T22:30:00.890Z,12.90
2017-10-28T22:32:28.359Z,12.90
2017-10-28T22:34:55.910Z,12.90
2017-10-28T22:37:23.388Z,12.90
2017-10-28T22:39:50.792Z,12.90
2017-10-28T22:42:18.252Z,12.90
2017-10-28T22:44:45.739Z,12.90
2017-10-28T22:47:13.196Z,13.00
2017-10-28T22:49:40.743Z,13.00
2017-10-28T22:52:08.231Z,13.00
2017-10-28T22:54:36.427Z,13.10
2017-10-28T22:57:03.949Z,13.00
2017-10-28T22:59:31.374Z,13.10
2017-10-28T23:01:58.863Z,13.00
2017-10-28T23:04:26.291Z,13.00
2017-10-28T23:06:53.732Z,13.00
2017-10-28T23:09:21.298Z,13.00
2017-10-28T23:11:48.755Z,13.00
2017-10-28T23:14:16.187Z,12.80
2017-10-28T23:16:43.640Z,12.60
2017-10-28T23:19:11.854Z,12.10
2017-10-28T23:21:39.299Z,12.00
2017-10-28T23:24:06.726Z,11.90
2017-10-28T23:26:34.174Z,11.80
2017-10-28T23:29:02.394Z,11.70
2017-10-28T23:31:29.827Z,11.60
2017-10-28T23:33:57.265Z,11.80
2017-10-28T23:36:24.778Z,11.80
2017-10-28T23:38:52.220Z,11.90
2017-10-28T23:41:19.672Z,12.00
2017-10-28T23:43:47.129Z,12.00
2017-10-28T23:46:14.567Z,11.70
2017-10-28T23:48:42.028Z,12.00
2017-10-28T23:51:09.459Z,11.90
2017-10-28T23:53:36.959Z,11.80
2017-10-28T23:56:04.400Z,11.70
2017-10-28T23:58:31.953Z,11.70
